sensor_id;sensor_type;location;lat;lon;timestamp;P1;durP1;ratioP1;P2;durP2;ratioP2
51030;SDS011;37058;41.442;23.240;2023-04-25T00:02:21;4.60;;;3.30;;
51030;SDS011;37058;41.442;23.240;2023-04-25T00:04:47;7.10;;;3.03;;
51030;SDS011;37058;41.442;23.240;2023-04-25T00:07:13;3.23;;;2.60;;
51030;SDS011;37058;41.442;23.240;2023-04-25T00:09:41;4.30;;;2.70;;
51030;SDS011;37058;41.442;23.240;2023-04-25T00:12:07;6.30;;;3.03;;
51030;SDS011;37058;41.442;23.240;2023-04-25T00:14:34;4.83;;;3.30;;
51030;SDS011;37058;41.442;23.240;2023-04-25T00:17:00;4.40;;;3.03;;
51030;SDS011;37058;41.442;23.240;2023-04-25T00:19:27;3.93;;;2.50;;
51030;SDS011;37058;41.442;23.240;2023-04-25T00:21:54;7.43;;;3.10;;
51030;SDS011;37058;41.442;23.240;2023-04-25T00:24:20;5.83;;;3.43;;
51030;SDS011;37058;41.442;23.240;2023-04-25T00:26:46;5.53;;;3.70;;
51030;SDS011;37058;41.442;23.240;2023-04-25T00:29:12;6.67;;;3.60;;
51030;SDS011;37058;41.442;23.240;2023-04-25T00:31:38;7.17;;;3.60;;
51030;SDS011;37058;41.442;23.240;2023-04-25T00:34:04;6.20;;;3.80;;
51030;SDS011;37058;41.442;23.240;2023-04-25T00:36:31;5.67;;;3.93;;
51030;SDS011;37058;41.442;23.240;2023-04-25T00:38:57;4.87;;;3.43;;
51030;SDS011;37058;41.442;23.240;2023-04-25T00:41:23;5.27;;;3.90;;
51030;SDS011;37058;41.442;23.240;2023-04-25T00:43:51;13.70;;;3.63;;
51030;SDS011;37058;41.442;23.240;2023-04-25T00:46:19;4.83;;;3.43;;
51030;SDS011;37058;41.442;23.240;2023-04-25T00:48:45;8.50;;;3.77;;
51030;SDS011;37058;41.442;23.240;2023-04-25T00:51:13;10.50;;;4.20;;
51030;SDS011;37058;41.442;23.240;2023-04-25T00:53:45;6.33;;;3.87;;
51030;SDS011;37058;41.442;23.240;2023-04-25T00:56:13;5.43;;;3.80;;
51030;SDS011;37058;41.442;23.240;2023-04-25T00:58:40;4.60;;;3.27;;
51030;SDS011;37058;41.442;23.240;2023-04-25T01:01:07;9.73;;;4.00;;
51030;SDS011;37058;41.442;23.240;2023-04-25T01:03:35;5.50;;;4.00;;
51030;SDS011;37058;41.442;23.240;2023-04-25T01:06:10;4.80;;;3.90;;
51030;SDS011;37058;41.442;23.240;2023-04-25T01:08:37;5.63;;;3.95;;
51030;SDS011;37058;41.442;23.240;2023-04-25T01:11:04;5.27;;;3.90;;
51030;SDS011;37058;41.442;23.240;2023-04-25T01:13:31;5.33;;;3.90;;
51030;SDS011;37058;41.442;23.240;2023-04-25T01:15:58;5.57;;;4.10;;
51030;SDS011;37058;41.442;23.240;2023-04-25T01:18:25;5.97;;;3.80;;
51030;SDS011;37058;41.442;23.240;2023-04-25T01:20:51;6.47;;;4.00;;
51030;SDS011;37058;41.442;23.240;2023-04-25T01:23:18;5.40;;;3.53;;
51030;SDS011;37058;41.442;23.240;2023-04-25T01:25:46;5.83;;;3.53;;
51030;SDS011;37058;41.442;23.240;2023-04-25T01:28:13;4.90;;;3.80;;
51030;SDS011;37058;41.442;23.240;2023-04-25T01:30:40;5.13;;;4.03;;
51030;SDS011;37058;41.442;23.240;2023-04-25T01:33:07;5.33;;;3.87;;
51030;SDS011;37058;41.442;23.240;2023-04-25T01:35:33;6.57;;;4.57;;
51030;SDS011;37058;41.442;23.240;2023-04-25T01:38:00;6.17;;;4.93;;
51030;SDS011;37058;41.442;23.240;2023-04-25T01:40:26;5.67;;;4.13;;
51030;SDS011;37058;41.442;23.240;2023-04-25T01:42:53;5.43;;;4.33;;
51030;SDS011;37058;41.442;23.240;2023-04-25T01:45:19;6.10;;;4.37;;
51030;SDS011;37058;41.442;23.240;2023-04-25T01:47:48;6.10;;;4.17;;
51030;SDS011;37058;41.442;23.240;2023-04-25T01:50:15;5.00;;;3.93;;
51030;SDS011;37058;41.442;23.240;2023-04-25T01:52:43;10.17;;;4.20;;
51030;SDS011;37058;41.442;23.240;2023-04-25T01:55:09;7.57;;;4.27;;
51030;SDS011;37058;41.442;23.240;2023-04-25T01:57:36;6.80;;;4.57;;
51030;SDS011;37058;41.442;23.240;2023-04-25T02:00:04;5.47;;;4.17;;
51030;SDS011;37058;41.442;23.240;2023-04-25T02:02:31;5.30;;;3.73;;
51030;SDS011;37058;41.442;23.240;2023-04-25T02:04:57;4.63;;;3.80;;
51030;SDS011;37058;41.442;23.240;2023-04-25T02:07:23;6.93;;;3.90;;
51030;SDS011;37058;41.442;23.240;2023-04-25T02:09:50;6.73;;;4.37;;
51030;SDS011;37058;41.442;23.240;2023-04-25T02:12:16;8.87;;;5.70;;
51030;SDS011;37058;41.442;23.240;2023-04-25T02:14:42;6.97;;;4.43;;
51030;SDS011;37058;41.442;23.240;2023-04-25T02:17:08;6.87;;;4.60;;
51030;SDS011;37058;41.442;23.240;2023-04-25T02:19:35;8.23;;;3.97;;
51030;SDS011;37058;41.442;23.240;2023-04-25T02:22:00;6.27;;;3.80;;
51030;SDS011;37058;41.442;23.240;2023-04-25T02:24:26;10.60;;;5.67;;
51030;SDS011;37058;41.442;23.240;2023-04-25T02:26:53;6.90;;;4.53;;
51030;SDS011;37058;41.442;23.240;2023-04-25T02:29:20;6.63;;;5.17;;
51030;SDS011;37058;41.442;23.240;2023-04-25T02:31:46;5.30;;;4.23;;
51030;SDS011;37058;41.442;23.240;2023-04-25T02:34:12;5.57;;;4.57;;
51030;SDS011;37058;41.442;23.240;2023-04-25T02:36:38;4.57;;;3.63;;
51030;SDS011;37058;41.442;23.240;2023-04-25T02:39:04;8.17;;;4.57;;
51030;SDS011;37058;41.442;23.240;2023-04-25T02:41:30;6.73;;;4.50;;
51030;SDS011;37058;41.442;23.240;2023-04-25T02:43:56;5.60;;;4.30;;
51030;SDS011;37058;41.442;23.240;2023-04-25T02:46:22;6.90;;;4.20;;
51030;SDS011;37058;41.442;23.240;2023-04-25T02:48:48;6.43;;;4.13;;
51030;SDS011;37058;41.442;23.240;2023-04-25T02:51:14;5.33;;;4.33;;
51030;SDS011;37058;41.442;23.240;2023-04-25T02:53:41;7.53;;;3.93;;
51030;SDS011;37058;41.442;23.240;2023-04-25T02:56:07;5.70;;;3.67;;
51030;SDS011;37058;41.442;23.240;2023-04-25T02:58:33;5.63;;;4.13;;
51030;SDS011;37058;41.442;23.240;2023-04-25T03:00:59;5.63;;;3.43;;
51030;SDS011;37058;41.442;23.240;2023-04-25T03:03:25;6.50;;;3.40;;
51030;SDS011;37058;41.442;23.240;2023-04-25T03:05:51;6.20;;;3.77;;
51030;SDS011;37058;41.442;23.240;2023-04-25T03:08:18;7.27;;;3.67;;
51030;SDS011;37058;41.442;23.240;2023-04-25T03:10:44;4.87;;;3.80;;
51030;SDS011;37058;41.442;23.240;2023-04-25T03:13:10;6.40;;;4.07;;
51030;SDS011;37058;41.442;23.240;2023-04-25T03:15:37;6.37;;;4.23;;
51030;SDS011;37058;41.442;23.240;2023-04-25T03:18:04;6.83;;;4.37;;
51030;SDS011;37058;41.442;23.240;2023-04-25T03:20:30;7.77;;;4.43;;
51030;SDS011;37058;41.442;23.240;2023-04-25T03:22:56;7.17;;;4.33;;
51030;SDS011;37058;41.442;23.240;2023-04-25T03:25:22;9.90;;;7.37;;
51030;SDS011;37058;41.442;23.240;2023-04-25T03:27:47;10.10;;;5.17;;
51030;SDS011;37058;41.442;23.240;2023-04-25T03:30:13;6.67;;;4.37;;
51030;SDS011;37058;41.442;23.240;2023-04-25T03:32:39;5.93;;;4.00;;
51030;SDS011;37058;41.442;23.240;2023-04-25T03:35:05;6.77;;;4.20;;
51030;SDS011;37058;41.442;23.240;2023-04-25T03:37:32;4.83;;;3.47;;
51030;SDS011;37058;41.442;23.240;2023-04-25T03:39:58;8.07;;;4.93;;
51030;SDS011;37058;41.442;23.240;2023-04-25T03:42:23;6.63;;;4.80;;
51030;SDS011;37058;41.442;23.240;2023-04-25T03:44:49;6.97;;;5.10;;
51030;SDS011;37058;41.442;23.240;2023-04-25T03:47:16;5.40;;;4.23;;
51030;SDS011;37058;41.442;23.240;2023-04-25T03:49:42;5.63;;;4.53;;
51030;SDS011;37058;41.442;23.240;2023-04-25T03:52:09;8.43;;;5.57;;
51030;SDS011;37058;41.442;23.240;2023-04-25T03:54:35;9.10;;;6.73;;
51030;SDS011;37058;41.442;23.240;2023-04-25T03:57:01;8.27;;;6.67;;
51030;SDS011;37058;41.442;23.240;2023-04-25T03:59:27;7.47;;;4.53;;
51030;SDS011;37058;41.442;23.240;2023-04-25T04:01:53;6.17;;;4.80;;
51030;SDS011;37058;41.442;23.240;2023-04-25T04:04:19;7.30;;;4.70;;
51030;SDS011;37058;41.442;23.240;2023-04-25T04:06:45;7.07;;;5.50;;
51030;SDS011;37058;41.442;23.240;2023-04-25T04:09:11;5.77;;;4.30;;
51030;SDS011;37058;41.442;23.240;2023-04-25T04:11:37;5.57;;;3.90;;
51030;SDS011;37058;41.442;23.240;2023-04-25T04:14:05;7.90;;;5.50;;
51030;SDS011;37058;41.442;23.240;2023-04-25T04:16:31;8.73;;;6.80;;
51030;SDS011;37058;41.442;23.240;2023-04-25T04:18:57;5.73;;;4.57;;
51030;SDS011;37058;41.442;23.240;2023-04-25T04:21:23;10.07;;;6.23;;
51030;SDS011;37058;41.442;23.240;2023-04-25T04:23:49;8.50;;;6.10;;
51030;SDS011;37058;41.442;23.240;2023-04-25T04:26:15;11.40;;;6.73;;
51030;SDS011;37058;41.442;23.240;2023-04-25T04:28:42;8.13;;;5.50;;
51030;SDS011;37058;41.442;23.240;2023-04-25T04:31:09;8.47;;;5.90;;
51030;SDS011;37058;41.442;23.240;2023-04-25T04:33:35;8.00;;;5.40;;
51030;SDS011;37058;41.442;23.240;2023-04-25T04:36:02;5.17;;;4.30;;
51030;SDS011;37058;41.442;23.240;2023-04-25T04:38:29;7.87;;;5.93;;
51030;SDS011;37058;41.442;23.240;2023-04-25T04:40:55;7.23;;;6.03;;
51030;SDS011;37058;41.442;23.240;2023-04-25T04:43:21;7.27;;;5.90;;
51030;SDS011;37058;41.442;23.240;2023-04-25T04:45:48;6.27;;;4.90;;
51030;SDS011;37058;41.442;23.240;2023-04-25T04:48:15;7.57;;;5.80;;
51030;SDS011;37058;41.442;23.240;2023-04-25T04:50:44;5.97;;;4.80;;
51030;SDS011;37058;41.442;23.240;2023-04-25T04:53:11;8.18;;;4.93;;
51030;SDS011;37058;41.442;23.240;2023-04-25T04:55:38;6.53;;;4.77;;
51030;SDS011;37058;41.442;23.240;2023-04-25T04:58:06;7.17;;;4.90;;
51030;SDS011;37058;41.442;23.240;2023-04-25T05:00:32;9.87;;;5.60;;
51030;SDS011;37058;41.442;23.240;2023-04-25T05:02:59;8.40;;;5.57;;
51030;SDS011;37058;41.442;23.240;2023-04-25T05:05:25;9.80;;;5.50;;
51030;SDS011;37058;41.442;23.240;2023-04-25T05:07:51;10.93;;;6.67;;
51030;SDS011;37058;41.442;23.240;2023-04-25T05:10:17;13.00;;;7.33;;
51030;SDS011;37058;41.442;23.240;2023-04-25T05:12:45;9.80;;;7.30;;
51030;SDS011;37058;41.442;23.240;2023-04-25T05:15:11;9.07;;;7.63;;
51030;SDS011;37058;41.442;23.240;2023-04-25T05:17:37;13.03;;;8.60;;
51030;SDS011;37058;41.442;23.240;2023-04-25T05:20:04;12.27;;;9.07;;
51030;SDS011;37058;41.442;23.240;2023-04-25T05:22:36;9.83;;;7.87;;
51030;SDS011;37058;41.442;23.240;2023-04-25T05:25:02;10.90;;;7.80;;
51030;SDS011;37058;41.442;23.240;2023-04-25T05:27:28;10.23;;;6.83;;
51030;SDS011;37058;41.442;23.240;2023-04-25T05:29:54;8.23;;;6.70;;
51030;SDS011;37058;41.442;23.240;2023-04-25T05:32:20;7.35;;;5.80;;
51030;SDS011;37058;41.442;23.240;2023-04-25T05:34:46;7.90;;;6.05;;
51030;SDS011;37058;41.442;23.240;2023-04-25T05:37:12;8.18;;;6.20;;
51030;SDS011;37058;41.442;23.240;2023-04-25T05:39:38;8.00;;;5.97;;
51030;SDS011;37058;41.442;23.240;2023-04-25T05:42:03;7.72;;;6.03;;
51030;SDS011;37058;41.442;23.240;2023-04-25T05:44:30;8.98;;;6.28;;
51030;SDS011;37058;41.442;23.240;2023-04-25T05:46:56;7.80;;;6.20;;
51030;SDS011;37058;41.442;23.240;2023-04-25T05:49:22;8.68;;;6.82;;
51030;SDS011;37058;41.442;23.240;2023-04-25T05:51:48;7.32;;;5.32;;
51030;SDS011;37058;41.442;23.240;2023-04-25T05:54:14;9.00;;;6.68;;
51030;SDS011;37058;41.442;23.240;2023-04-25T05:56:39;10.05;;;8.77;;
51030;SDS011;37058;41.442;23.240;2023-04-25T05:59:05;10.97;;;8.47;;
51030;SDS011;37058;41.442;23.240;2023-04-25T06:01:31;9.77;;;8.30;;
51030;SDS011;37058;41.442;23.240;2023-04-25T06:03:57;10.03;;;7.70;;
51030;SDS011;37058;41.442;23.240;2023-04-25T06:06:23;18.00;;;8.07;;
51030;SDS011;37058;41.442;23.240;2023-04-25T06:08:49;9.03;;;7.73;;
51030;SDS011;37058;41.442;23.240;2023-04-25T06:11:15;9.95;;;7.57;;
51030;SDS011;37058;41.442;23.240;2023-04-25T06:13:41;7.22;;;6.25;;
51030;SDS011;37058;41.442;23.240;2023-04-25T06:16:07;7.43;;;5.45;;
51030;SDS011;37058;41.442;23.240;2023-04-25T06:18:33;6.47;;;4.72;;
51030;SDS011;37058;41.442;23.240;2023-04-25T06:20:59;6.90;;;5.07;;
51030;SDS011;37058;41.442;23.240;2023-04-25T06:23:24;7.80;;;5.00;;
51030;SDS011;37058;41.442;23.240;2023-04-25T06:25:50;5.53;;;4.45;;
51030;SDS011;37058;41.442;23.240;2023-04-25T06:28:16;5.18;;;3.83;;
51030;SDS011;37058;41.442;23.240;2023-04-25T06:30:42;6.10;;;4.07;;
51030;SDS011;37058;41.442;23.240;2023-04-25T06:33:08;5.20;;;3.80;;
51030;SDS011;37058;41.442;23.240;2023-04-25T06:35:34;5.63;;;4.30;;
51030;SDS011;37058;41.442;23.240;2023-04-25T06:38:00;6.03;;;4.43;;
51030;SDS011;37058;41.442;23.240;2023-04-25T06:40:26;8.10;;;4.28;;
51030;SDS011;37058;41.442;23.240;2023-04-25T06:42:52;8.32;;;4.18;;
51030;SDS011;37058;41.442;23.240;2023-04-25T06:45:18;7.03;;;3.97;;
51030;SDS011;37058;41.442;23.240;2023-04-25T06:47:43;5.13;;;4.00;;
51030;SDS011;37058;41.442;23.240;2023-04-25T06:50:09;7.20;;;4.00;;
51030;SDS011;37058;41.442;23.240;2023-04-25T06:52:35;6.53;;;4.20;;
51030;SDS011;37058;41.442;23.240;2023-04-25T06:55:01;7.00;;;4.68;;
51030;SDS011;37058;41.442;23.240;2023-04-25T06:57:27;6.20;;;4.75;;
51030;SDS011;37058;41.442;23.240;2023-04-25T06:59:53;5.95;;;4.45;;
51030;SDS011;37058;41.442;23.240;2023-04-25T07:02:19;5.93;;;3.97;;
51030;SDS011;37058;41.442;23.240;2023-04-25T07:04:46;5.95;;;4.10;;
51030;SDS011;37058;41.442;23.240;2023-04-25T07:07:12;5.20;;;3.92;;
51030;SDS011;37058;41.442;23.240;2023-04-25T07:09:38;4.78;;;3.55;;
51030;SDS011;37058;41.442;23.240;2023-04-25T07:12:04;10.02;;;4.00;;
51030;SDS011;37058;41.442;23.240;2023-04-25T07:14:30;4.43;;;3.30;;
51030;SDS011;37058;41.442;23.240;2023-04-25T07:16:56;6.25;;;3.58;;
51030;SDS011;37058;41.442;23.240;2023-04-25T07:19:22;5.28;;;3.47;;
51030;SDS011;37058;41.442;23.240;2023-04-25T07:21:54;7.05;;;4.50;;
51030;SDS011;37058;41.442;23.240;2023-04-25T07:24:20;6.47;;;3.70;;
51030;SDS011;37058;41.442;23.240;2023-04-25T07:26:46;6.60;;;3.80;;
51030;SDS011;37058;41.442;23.240;2023-04-25T07:29:13;6.60;;;4.75;;
51030;SDS011;37058;41.442;23.240;2023-04-25T07:31:39;5.20;;;3.85;;
51030;SDS011;37058;41.442;23.240;2023-04-25T07:34:05;6.35;;;4.18;;
51030;SDS011;37058;41.442;23.240;2023-04-25T07:36:31;6.20;;;4.90;;
51030;SDS011;37058;41.442;23.240;2023-04-25T07:38:56;6.60;;;4.90;;
51030;SDS011;37058;41.442;23.240;2023-04-25T07:41:22;6.05;;;4.35;;
51030;SDS011;37058;41.442;23.240;2023-04-25T07:43:48;5.63;;;4.50;;
51030;SDS011;37058;41.442;23.240;2023-04-25T07:46:14;8.70;;;5.53;;
51030;SDS011;37058;41.442;23.240;2023-04-25T07:48:40;9.20;;;4.90;;
51030;SDS011;37058;41.442;23.240;2023-04-25T07:51:06;5.13;;;4.00;;
51030;SDS011;37058;41.442;23.240;2023-04-25T07:53:32;7.40;;;4.75;;
51030;SDS011;37058;41.442;23.240;2023-04-25T07:55:59;7.95;;;4.00;;
51030;SDS011;37058;41.442;23.240;2023-04-25T07:58:25;4.80;;;3.53;;
51030;SDS011;37058;41.442;23.240;2023-04-25T08:00:51;6.03;;;3.92;;
51030;SDS011;37058;41.442;23.240;2023-04-25T08:03:17;4.55;;;3.15;;
51030;SDS011;37058;41.442;23.240;2023-04-25T08:05:43;4.63;;;2.72;;
51030;SDS011;37058;41.442;23.240;2023-04-25T08:08:09;4.43;;;3.00;;
51030;SDS011;37058;41.442;23.240;2023-04-25T08:10:37;4.25;;;3.35;;
51030;SDS011;37058;41.442;23.240;2023-04-25T08:13:03;4.90;;;3.30;;
51030;SDS011;37058;41.442;23.240;2023-04-25T08:15:29;7.47;;;3.83;;
51030;SDS011;37058;41.442;23.240;2023-04-25T08:17:57;9.00;;;4.00;;
51030;SDS011;37058;41.442;23.240;2023-04-25T08:20:25;5.80;;;4.15;;
51030;SDS011;37058;41.442;23.240;2023-04-25T08:22:51;7.43;;;3.95;;
51030;SDS011;37058;41.442;23.240;2023-04-25T08:25:17;5.38;;;3.92;;
51030;SDS011;37058;41.442;23.240;2023-04-25T08:27:43;4.10;;;3.30;;
51030;SDS011;37058;41.442;23.240;2023-04-25T08:30:09;6.18;;;4.57;;
51030;SDS011;37058;41.442;23.240;2023-04-25T08:32:35;4.95;;;3.30;;
51030;SDS011;37058;41.442;23.240;2023-04-25T08:35:03;5.95;;;3.70;;
51030;SDS011;37058;41.442;23.240;2023-04-25T08:37:30;5.60;;;3.10;;
51030;SDS011;37058;41.442;23.240;2023-04-25T08:39:56;5.45;;;3.60;;
51030;SDS011;37058;41.442;23.240;2023-04-25T08:42:22;5.88;;;3.45;;
51030;SDS011;37058;41.442;23.240;2023-04-25T08:47:19;4.15;;;2.78;;
51030;SDS011;37058;41.442;23.240;2023-04-25T08:49:47;5.80;;;2.83;;
51030;SDS011;37058;41.442;23.240;2023-04-25T08:52:14;4.80;;;3.00;;
51030;SDS011;37058;41.442;23.240;2023-04-25T08:54:46;4.50;;;3.35;;
51030;SDS011;37058;41.442;23.240;2023-04-25T08:57:14;4.78;;;2.78;;
51030;SDS011;37058;41.442;23.240;2023-04-25T08:59:40;4.22;;;2.80;;
51030;SDS011;37058;41.442;23.240;2023-04-25T09:02:10;3.80;;;2.80;;
51030;SDS011;37058;41.442;23.240;2023-04-25T09:04:42;5.80;;;2.75;;
51030;SDS011;37058;41.442;23.240;2023-04-25T09:07:09;3.00;;;2.13;;
51030;SDS011;37058;41.442;23.240;2023-04-25T09:09:35;4.57;;;2.05;;
51030;SDS011;37058;41.442;23.240;2023-04-25T09:12:01;3.22;;;2.35;;
51030;SDS011;37058;41.442;23.240;2023-04-25T09:14:27;5.05;;;3.20;;
51030;SDS011;37058;41.442;23.240;2023-04-25T09:21:58;5.85;;;2.25;;
51030;SDS011;37058;41.442;23.240;2023-04-25T09:26:59;7.30;;;2.45;;
51030;SDS011;37058;41.442;23.240;2023-04-25T09:29:30;6.18;;;2.40;;
51030;SDS011;37058;41.442;23.240;2023-04-25T09:34:47;3.03;;;2.13;;
51030;SDS011;37058;41.442;23.240;2023-04-25T09:39:56;6.53;;;2.50;;
51030;SDS011;37058;41.442;23.240;2023-04-25T09:42:26;4.68;;;3.08;;
51030;SDS011;37058;41.442;23.240;2023-04-25T09:44:54;3.20;;;2.20;;
51030;SDS011;37058;41.442;23.240;2023-04-25T09:47:22;6.68;;;3.10;;
51030;SDS011;37058;41.442;23.240;2023-04-25T09:49:51;6.00;;;2.53;;
51030;SDS011;37058;41.442;23.240;2023-04-25T09:52:19;6.28;;;2.60;;
51030;SDS011;37058;41.442;23.240;2023-04-25T09:54:48;3.78;;;2.63;;
51030;SDS011;37058;41.442;23.240;2023-04-25T09:57:22;5.88;;;2.53;;
51030;SDS011;37058;41.442;23.240;2023-04-25T09:59:53;17.35;;;2.60;;
51030;SDS011;37058;41.442;23.240;2023-04-25T10:02:22;3.92;;;2.40;;
51030;SDS011;37058;41.442;23.240;2023-04-25T10:04:51;3.03;;;1.92;;
51030;SDS011;37058;41.442;23.240;2023-04-25T10:07:20;5.53;;;2.42;;
51030;SDS011;37058;41.442;23.240;2023-04-25T10:09:59;5.97;;;2.17;;
51030;SDS011;37058;41.442;23.240;2023-04-25T10:12:28;6.10;;;2.03;;
51030;SDS011;37058;41.442;23.240;2023-04-25T10:14:56;4.00;;;1.98;;
51030;SDS011;37058;41.442;23.240;2023-04-25T10:17:23;7.75;;;2.28;;
51030;SDS011;37058;41.442;23.240;2023-04-25T10:19:52;3.17;;;1.90;;
51030;SDS011;37058;41.442;23.240;2023-04-25T10:22:35;3.97;;;1.98;;
51030;SDS011;37058;41.442;23.240;2023-04-25T10:25:07;4.07;;;2.38;;
51030;SDS011;37058;41.442;23.240;2023-04-25T10:27:34;4.03;;;2.05;;
51030;SDS011;37058;41.442;23.240;2023-04-25T10:30:03;6.00;;;3.38;;
51030;SDS011;37058;41.442;23.240;2023-04-25T10:32:31;4.38;;;2.13;;
51030;SDS011;37058;41.442;23.240;2023-04-25T10:35:06;3.17;;;1.70;;
51030;SDS011;37058;41.442;23.240;2023-04-25T10:40:34;2.25;;;1.45;;
51030;SDS011;37058;41.442;23.240;2023-04-25T10:43:35;6.05;;;1.92;;
51030;SDS011;37058;41.442;23.240;2023-04-25T10:45:56;3.65;;;2.08;;
51030;SDS011;37058;41.442;23.240;2023-04-25T10:48:25;4.30;;;1.70;;
51030;SDS011;37058;41.442;23.240;2023-04-25T10:51:08;4.10;;;1.63;;
51030;SDS011;37058;41.442;23.240;2023-04-25T10:53:41;3.83;;;2.10;;
51030;SDS011;37058;41.442;23.240;2023-04-25T10:56:18;8.05;;;1.70;;
51030;SDS011;37058;41.442;23.240;2023-04-25T10:58:46;5.60;;;1.40;;
51030;SDS011;37058;41.442;23.240;2023-04-25T11:01:14;3.38;;;1.25;;
51030;SDS011;37058;41.442;23.240;2023-04-25T11:03:45;3.58;;;1.33;;
51030;SDS011;37058;41.442;23.240;2023-04-25T11:06:15;4.85;;;1.38;;
51030;SDS011;37058;41.442;23.240;2023-04-25T11:08:54;4.80;;;1.40;;
51030;SDS011;37058;41.442;23.240;2023-04-25T11:11:20;4.03;;;1.38;;
51030;SDS011;37058;41.442;23.240;2023-04-25T11:13:49;2.28;;;1.42;;
51030;SDS011;37058;41.442;23.240;2023-04-25T11:16:16;2.75;;;1.15;;
51030;SDS011;37058;41.442;23.240;2023-04-25T11:18:43;3.95;;;1.38;;
51030;SDS011;37058;41.442;23.240;2023-04-25T11:21:10;2.65;;;1.40;;
51030;SDS011;37058;41.442;23.240;2023-04-25T11:23:36;5.45;;;1.42;;
51030;SDS011;37058;41.442;23.240;2023-04-25T11:26:03;3.15;;;1.00;;
51030;SDS011;37058;41.442;23.240;2023-04-25T11:28:29;3.67;;;1.08;;
51030;SDS011;37058;41.442;23.240;2023-04-25T11:30:55;2.47;;;1.23;;
51030;SDS011;37058;41.442;23.240;2023-04-25T11:33:25;2.28;;;1.33;;
51030;SDS011;37058;41.442;23.240;2023-04-25T11:35:55;1.58;;;0.90;;
51030;SDS011;37058;41.442;23.240;2023-04-25T11:38:22;2.42;;;1.20;;
51030;SDS011;37058;41.442;23.240;2023-04-25T11:40:53;1.50;;;1.00;;
51030;SDS011;37058;41.442;23.240;2023-04-25T11:43:20;3.05;;;1.30;;
51030;SDS011;37058;41.442;23.240;2023-04-25T11:45:50;3.03;;;1.90;;
51030;SDS011;37058;41.442;23.240;2023-04-25T11:50:44;0.85;;;0.75;;
51030;SDS011;37058;41.442;23.240;2023-04-25T11:53:10;1.05;;;0.90;;
51030;SDS011;37058;41.442;23.240;2023-04-25T11:55:36;0.73;;;0.73;;
51030;SDS011;37058;41.442;23.240;2023-04-25T11:58:03;1.42;;;1.02;;
51030;SDS011;37058;41.442;23.240;2023-04-25T12:00:29;2.13;;;0.80;;
51030;SDS011;37058;41.442;23.240;2023-04-25T12:02:56;2.05;;;0.90;;
51030;SDS011;37058;41.442;23.240;2023-04-25T12:05:24;1.52;;;0.80;;
51030;SDS011;37058;41.442;23.240;2023-04-25T12:07:55;1.27;;;0.82;;
51030;SDS011;37058;41.442;23.240;2023-04-25T12:10:21;3.50;;;1.45;;
51030;SDS011;37058;41.442;23.240;2023-04-25T12:12:49;2.72;;;1.52;;
51030;SDS011;37058;41.442;23.240;2023-04-25T12:17:50;2.67;;;1.27;;
51030;SDS011;37058;41.442;23.240;2023-04-25T12:20:18;3.13;;;1.70;;
51030;SDS011;37058;41.442;23.240;2023-04-25T12:22:56;3.20;;;1.10;;
51030;SDS011;37058;41.442;23.240;2023-04-25T12:25:35;4.40;;;1.70;;
51030;SDS011;37058;41.442;23.240;2023-04-25T12:28:14;2.35;;;0.80;;
51030;SDS011;37058;41.442;23.240;2023-04-25T12:31:18;4.70;;;0.90;;
51030;SDS011;37058;41.442;23.240;2023-04-25T12:33:40;7.63;;;1.60;;
51030;SDS011;37058;41.442;23.240;2023-04-25T12:36:07;2.60;;;1.20;;
51030;SDS011;37058;41.442;23.240;2023-04-25T12:38:40;4.60;;;1.20;;
51030;SDS011;37058;41.442;23.240;2023-04-25T12:41:07;2.38;;;1.42;;
51030;SDS011;37058;41.442;23.240;2023-04-25T12:43:33;4.13;;;1.73;;
51030;SDS011;37058;41.442;23.240;2023-04-25T12:46:00;5.22;;;1.65;;
51030;SDS011;37058;41.442;23.240;2023-04-25T12:48:26;4.20;;;1.17;;
51030;SDS011;37058;41.442;23.240;2023-04-25T12:50:52;1.17;;;0.90;;
51030;SDS011;37058;41.442;23.240;2023-04-25T12:53:21;2.80;;;1.05;;
51030;SDS011;37058;41.442;23.240;2023-04-25T12:55:51;3.50;;;1.48;;
51030;SDS011;37058;41.442;23.240;2023-04-25T12:58:18;2.33;;;0.75;;
51030;SDS011;37058;41.442;23.240;2023-04-25T13:00:45;3.40;;;1.20;;
51030;SDS011;37058;41.442;23.240;2023-04-25T13:03:11;2.30;;;0.90;;
51030;SDS011;37058;41.442;23.240;2023-04-25T13:05:37;1.13;;;0.80;;
51030;SDS011;37058;41.442;23.240;2023-04-25T13:08:04;5.57;;;1.52;;
51030;SDS011;37058;41.442;23.240;2023-04-25T13:10:30;4.45;;;2.20;;
51030;SDS011;37058;41.442;23.240;2023-04-25T13:12:58;4.70;;;3.03;;
51030;SDS011;37058;41.442;23.240;2023-04-25T13:15:26;5.82;;;3.47;;
51030;SDS011;37058;41.442;23.240;2023-04-25T13:17:52;4.35;;;2.75;;
51030;SDS011;37058;41.442;23.240;2023-04-25T13:20:18;1.88;;;1.15;;
51030;SDS011;37058;41.442;23.240;2023-04-25T13:22:47;1.83;;;1.20;;
51030;SDS011;37058;41.442;23.240;2023-04-25T13:25:13;3.60;;;1.08;;
51030;SDS011;37058;41.442;23.240;2023-04-25T13:27:39;4.45;;;2.08;;
51030;SDS011;37058;41.442;23.240;2023-04-25T13:30:07;1.80;;;1.17;;
51030;SDS011;37058;41.442;23.240;2023-04-25T13:32:34;1.75;;;1.48;;
51030;SDS011;37058;41.442;23.240;2023-04-25T13:35:04;3.17;;;1.83;;
51030;SDS011;37058;41.442;23.240;2023-04-25T13:37:33;3.13;;;1.00;;
51030;SDS011;37058;41.442;23.240;2023-04-25T13:40:00;3.50;;;0.95;;
51030;SDS011;37058;41.442;23.240;2023-04-25T13:42:34;1.38;;;1.05;;
51030;SDS011;37058;41.442;23.240;2023-04-25T13:45:00;4.25;;;1.33;;
51030;SDS011;37058;41.442;23.240;2023-04-25T13:47:26;1.02;;;0.70;;
51030;SDS011;37058;41.442;23.240;2023-04-25T13:49:53;1.25;;;0.70;;
51030;SDS011;37058;41.442;23.240;2023-04-25T13:52:19;2.05;;;0.90;;
51030;SDS011;37058;41.442;23.240;2023-04-25T13:54:45;1.20;;;0.65;;
51030;SDS011;37058;41.442;23.240;2023-04-25T13:57:11;2.08;;;0.82;;
51030;SDS011;37058;41.442;23.240;2023-04-25T13:59:38;4.22;;;1.45;;
51030;SDS011;37058;41.442;23.240;2023-04-25T14:02:04;1.27;;;0.90;;
51030;SDS011;37058;41.442;23.240;2023-04-25T14:04:30;2.35;;;1.10;;
51030;SDS011;37058;41.442;23.240;2023-04-25T14:06:57;3.33;;;1.60;;
51030;SDS011;37058;41.442;23.240;2023-04-25T14:09:23;4.13;;;1.30;;
51030;SDS011;37058;41.442;23.240;2023-04-25T14:11:53;1.83;;;1.00;;
51030;SDS011;37058;41.442;23.240;2023-04-25T14:14:20;1.55;;;0.98;;
51030;SDS011;37058;41.442;23.240;2023-04-25T14:16:47;4.95;;;1.60;;
51030;SDS011;37058;41.442;23.240;2023-04-25T14:19:14;2.45;;;1.45;;
51030;SDS011;37058;41.442;23.240;2023-04-25T14:21:40;2.70;;;0.93;;
51030;SDS011;37058;41.442;23.240;2023-04-25T14:24:08;3.67;;;1.15;;
51030;SDS011;37058;41.442;23.240;2023-04-25T14:26:36;3.33;;;1.05;;
51030;SDS011;37058;41.442;23.240;2023-04-25T14:29:02;4.28;;;1.90;;
51030;SDS011;37058;41.442;23.240;2023-04-25T14:31:30;2.38;;;1.45;;
51030;SDS011;37058;41.442;23.240;2023-04-25T14:34:00;2.50;;;1.00;;
51030;SDS011;37058;41.442;23.240;2023-04-25T14:36:30;1.65;;;1.00;;
51030;SDS011;37058;41.442;23.240;2023-04-25T14:38:57;7.32;;;2.35;;
51030;SDS011;37058;41.442;23.240;2023-04-25T14:41:26;4.68;;;2.40;;
51030;SDS011;37058;41.442;23.240;2023-04-25T14:43:52;4.35;;;1.10;;
51030;SDS011;37058;41.442;23.240;2023-04-25T14:46:21;3.30;;;1.55;;
51030;SDS011;37058;41.442;23.240;2023-04-25T14:48:48;1.60;;;1.23;;
51030;SDS011;37058;41.442;23.240;2023-04-25T14:51:14;2.20;;;1.25;;
51030;SDS011;37058;41.442;23.240;2023-04-25T14:53:40;1.40;;;0.77;;
51030;SDS011;37058;41.442;23.240;2023-04-25T14:56:07;1.30;;;0.80;;
51030;SDS011;37058;41.442;23.240;2023-04-25T14:58:33;6.38;;;0.98;;